sensor_id;sensor_type;location;lat;lon;timestamp;P1;durP1;ratioP1;P2;durP2;ratioP2
7983;SDS011;4037;47.980;10.172;2022-12-07T00:02:23;17.50;;;11.80;;
7983;SDS011;4037;47.980;10.172;2022-12-07T00:04:49;17.17;;;13.07;;
7983;SDS011;4037;47.980;10.172;2022-12-07T00:07:15;15.03;;;11.47;;
7983;SDS011;4037;47.980;10.172;2022-12-07T00:09:41;15.97;;;11.70;;
7983;SDS011;4037;47.980;10.172;2022-12-07T00:12:07;17.20;;;11.97;;
7983;SDS011;4037;47.980;10.172;2022-12-07T00:14:33;16.63;;;12.37;;
7983;SDS011;4037;47.980;10.172;2022-12-07T00:16:59;15.90;;;11.40;;
7983;SDS011;4037;47.980;10.172;2022-12-07T00:19:26;18.03;;;11.90;;
7983;SDS011;4037;47.980;10.172;2022-12-07T00:21:52;13.93;;;10.77;;
7983;SDS011;4037;47.980;10.172;2022-12-07T00:24:18;15.90;;;11.30;;
7983;SDS011;4037;47.980;10.172;2022-12-07T00:26:44;12.70;;;10.67;;
7983;SDS011;4037;47.980;10.172;2022-12-07T00:29:15;15.63;;;11.87;;
7983;SDS011;4037;47.980;10.172;2022-12-07T00:31:41;13.90;;;11.20;;
7983;SDS011;4037;47.980;10.172;2022-12-07T00:34:11;16.57;;;12.07;;
7983;SDS011;4037;47.980;10.172;2022-12-07T00:36:37;16.20;;;11.67;;
7983;SDS011;4037;47.980;10.172;2022-12-07T00:39:03;17.87;;;12.77;;
7983;SDS011;4037;47.980;10.172;2022-12-07T00:41:29;17.57;;;12.27;;
7983;SDS011;4037;47.980;10.172;2022-12-07T00:43:56;19.27;;;12.73;;
7983;SDS011;4037;47.980;10.172;2022-12-07T00:46:22;20.67;;;13.03;;
7983;SDS011;4037;47.980;10.172;2022-12-07T00:48:50;17.40;;;12.57;;
7983;SDS011;4037;47.980;10.172;2022-12-07T00:51:17;17.90;;;13.30;;
7983;SDS011;4037;47.980;10.172;2022-12-07T00:53:43;19.20;;;13.27;;
7983;SDS011;4037;47.980;10.172;2022-12-07T00:56:12;18.43;;;13.37;;
7983;SDS011;4037;47.980;10.172;2022-12-07T00:58:38;19.43;;;14.23;;
7983;SDS011;4037;47.980;10.172;2022-12-07T01:01:04;21.70;;;14.77;;
7983;SDS011;4037;47.980;10.172;2022-12-07T01:03:31;23.67;;;14.27;;
7983;SDS011;4037;47.980;10.172;2022-12-07T01:05:57;20.97;;;14.67;;
7983;SDS011;4037;47.980;10.172;2022-12-07T01:08:24;21.23;;;15.30;;
7983;SDS011;4037;47.980;10.172;2022-12-07T01:10:57;22.60;;;14.27;;
7983;SDS011;4037;47.980;10.172;2022-12-07T01:13:23;19.23;;;14.10;;
7983;SDS011;4037;47.980;10.172;2022-12-07T01:15:49;20.77;;;14.43;;
7983;SDS011;4037;47.980;10.172;2022-12-07T01:18:15;19.50;;;14.27;;
7983;SDS011;4037;47.980;10.172;2022-12-07T01:20:41;20.10;;;13.70;;
7983;SDS011;4037;47.980;10.172;2022-12-07T01:23:07;18.50;;;13.43;;
7983;SDS011;4037;47.980;10.172;2022-12-07T01:25:33;16.93;;;13.27;;
7983;SDS011;4037;47.980;10.172;2022-12-07T01:27:59;23.60;;;16.33;;
7983;SDS011;4037;47.980;10.172;2022-12-07T01:30:25;23.13;;;14.60;;
7983;SDS011;4037;47.980;10.172;2022-12-07T01:32:51;21.10;;;14.50;;
7983;SDS011;4037;47.980;10.172;2022-12-07T01:35:17;21.13;;;14.53;;
7983;SDS011;4037;47.980;10.172;2022-12-07T01:37:43;20.07;;;12.83;;
7983;SDS011;4037;47.980;10.172;2022-12-07T01:40:09;23.77;;;14.50;;
7983;SDS011;4037;47.980;10.172;2022-12-07T01:42:36;18.00;;;13.00;;
7983;SDS011;4037;47.980;10.172;2022-12-07T01:47:45;20.13;;;13.27;;
7983;SDS011;4037;47.980;10.172;2022-12-07T01:50:13;18.80;;;13.67;;
7983;SDS011;4037;47.980;10.172;2022-12-07T01:52:39;18.87;;;13.33;;
7983;SDS011;4037;47.980;10.172;2022-12-07T01:55:07;18.70;;;12.87;;
7983;SDS011;4037;47.980;10.172;2022-12-07T01:57:34;16.13;;;12.70;;
7983;SDS011;4037;47.980;10.172;2022-12-07T02:00:00;17.53;;;12.57;;
7983;SDS011;4037;47.980;10.172;2022-12-07T02:02:28;18.97;;;12.70;;
7983;SDS011;4037;47.980;10.172;2022-12-07T02:04:57;17.23;;;12.43;;
7983;SDS011;4037;47.980;10.172;2022-12-07T02:07:24;15.77;;;12.10;;
7983;SDS011;4037;47.980;10.172;2022-12-07T02:09:51;19.67;;;12.77;;
7983;SDS011;4037;47.980;10.172;2022-12-07T02:12:17;16.33;;;12.87;;
7983;SDS011;4037;47.980;10.172;2022-12-07T02:14:43;17.27;;;13.20;;
7983;SDS011;4037;47.980;10.172;2022-12-07T02:30:28;17.27;;;13.13;;
7983;SDS011;4037;47.980;10.172;2022-12-07T02:32:57;22.53;;;13.67;;
7983;SDS011;4037;47.980;10.172;2022-12-07T02:35:32;18.73;;;13.00;;
7983;SDS011;4037;47.980;10.172;2022-12-07T02:38:02;18.27;;;12.20;;
7983;SDS011;4037;47.980;10.172;2022-12-07T02:42:57;16.73;;;11.93;;
7983;SDS011;4037;47.980;10.172;2022-12-07T02:45:25;19.17;;;12.43;;
7983;SDS011;4037;47.980;10.172;2022-12-07T02:47:51;16.00;;;12.03;;
7983;SDS011;4037;47.980;10.172;2022-12-07T02:50:19;17.63;;;12.10;;
7983;SDS011;4037;47.980;10.172;2022-12-07T02:52:46;16.33;;;12.30;;
7983;SDS011;4037;47.980;10.172;2022-12-07T02:55:12;18.70;;;12.17;;
7983;SDS011;4037;47.980;10.172;2022-12-07T03:00:11;18.73;;;12.60;;
7983;SDS011;4037;47.980;10.172;2022-12-07T03:02:42;18.57;;;12.63;;
7983;SDS011;4037;47.980;10.172;2022-12-07T03:13:09;18.77;;;11.27;;
7983;SDS011;4037;47.980;10.172;2022-12-07T03:15:43;15.70;;;11.03;;
7983;SDS011;4037;47.980;10.172;2022-12-07T03:18:11;18.70;;;12.43;;
7983;SDS011;4037;47.980;10.172;2022-12-07T03:20:39;16.83;;;12.17;;
7983;SDS011;4037;47.980;10.172;2022-12-07T03:23:06;16.23;;;11.90;;
7983;SDS011;4037;47.980;10.172;2022-12-07T03:25:34;18.20;;;12.33;;
7983;SDS011;4037;47.980;10.172;2022-12-07T03:28:02;15.93;;;11.67;;
7983;SDS011;4037;47.980;10.172;2022-12-07T03:30:35;16.67;;;11.80;;
7983;SDS011;4037;47.980;10.172;2022-12-07T03:33:07;15.90;;;11.27;;
7983;SDS011;4037;47.980;10.172;2022-12-07T03:35:43;19.13;;;12.43;;
7983;SDS011;4037;47.980;10.172;2022-12-07T03:43:11;17.67;;;12.27;;
7983;SDS011;4037;47.980;10.172;2022-12-07T03:45:41;20.20;;;11.97;;
7983;SDS011;4037;47.980;10.172;2022-12-07T03:50:58;19.00;;;11.70;;
7983;SDS011;4037;47.980;10.172;2022-12-07T03:53:24;16.47;;;12.07;;
7983;SDS011;4037;47.980;10.172;2022-12-07T03:55:53;17.80;;;12.23;;
7983;SDS011;4037;47.980;10.172;2022-12-07T03:58:20;19.57;;;12.27;;
7983;SDS011;4037;47.980;10.172;2022-12-07T04:00:48;17.53;;;12.63;;
7983;SDS011;4037;47.980;10.172;2022-12-07T04:03:14;17.93;;;11.30;;
7983;SDS011;4037;47.980;10.172;2022-12-07T04:05:40;19.07;;;12.90;;
7983;SDS011;4037;47.980;10.172;2022-12-07T04:08:06;18.93;;;12.63;;
7983;SDS011;4037;47.980;10.172;2022-12-07T04:10:32;18.63;;;12.70;;
7983;SDS011;4037;47.980;10.172;2022-12-07T04:12:58;18.73;;;13.30;;
7983;SDS011;4037;47.980;10.172;2022-12-07T04:15:24;20.40;;;12.67;;
7983;SDS011;4037;47.980;10.172;2022-12-07T04:17:51;19.17;;;11.87;;
7983;SDS011;4037;47.980;10.172;2022-12-07T04:20:17;17.67;;;12.27;;
7983;SDS011;4037;47.980;10.172;2022-12-07T04:22:43;16.73;;;11.53;;
7983;SDS011;4037;47.980;10.172;2022-12-07T04:25:09;17.33;;;11.37;;
7983;SDS011;4037;47.980;10.172;2022-12-07T04:27:35;14.87;;;11.23;;
7983;SDS011;4037;47.980;10.172;2022-12-07T04:30:01;12.03;;;9.50;;
7983;SDS011;4037;47.980;10.172;2022-12-07T04:32:27;12.43;;;8.93;;
7983;SDS011;4037;47.980;10.172;2022-12-07T04:34:53;14.67;;;9.57;;
7983;SDS011;4037;47.980;10.172;2022-12-07T04:37:19;13.17;;;10.40;;
7983;SDS011;4037;47.980;10.172;2022-12-07T04:39:45;13.53;;;9.93;;
7983;SDS011;4037;47.980;10.172;2022-12-07T04:42:11;13.97;;;10.30;;
7983;SDS011;4037;47.980;10.172;2022-12-07T04:44:37;13.97;;;9.67;;
7983;SDS011;4037;47.980;10.172;2022-12-07T04:47:04;14.57;;;10.50;;
7983;SDS011;4037;47.980;10.172;2022-12-07T04:49:30;14.07;;;10.03;;
7983;SDS011;4037;47.980;10.172;2022-12-07T04:51:56;14.00;;;10.47;;
7983;SDS011;4037;47.980;10.172;2022-12-07T04:54:22;15.60;;;9.43;;
7983;SDS011;4037;47.980;10.172;2022-12-07T04:56:48;13.77;;;9.87;;
7983;SDS011;4037;47.980;10.172;2022-12-07T04:59:15;15.30;;;10.50;;
7983;SDS011;4037;47.980;10.172;2022-12-07T05:01:41;19.97;;;11.97;;
7983;SDS011;4037;47.980;10.172;2022-12-07T05:04:07;14.80;;;10.60;;
7983;SDS011;4037;47.980;10.172;2022-12-07T05:06:33;16.37;;;11.23;;
7983;SDS011;4037;47.980;10.172;2022-12-07T05:08:59;14.63;;;11.20;;
7983;SDS011;4037;47.980;10.172;2022-12-07T05:11:25;14.93;;;10.80;;
7983;SDS011;4037;47.980;10.172;2022-12-07T05:14:11;15.70;;;11.03;;
7983;SDS011;4037;47.980;10.172;2022-12-07T05:16:38;16.10;;;11.40;;
7983;SDS011;4037;47.980;10.172;2022-12-07T05:19:04;15.83;;;10.80;;
7983;SDS011;4037;47.980;10.172;2022-12-07T05:21:31;19.93;;;11.63;;
7983;SDS011;4037;47.980;10.172;2022-12-07T05:23:57;16.43;;;11.17;;
7983;SDS011;4037;47.980;10.172;2022-12-07T05:26:23;16.03;;;10.07;;
7983;SDS011;4037;47.980;10.172;2022-12-07T05:28:53;16.20;;;10.80;;
7983;SDS011;4037;47.980;10.172;2022-12-07T05:31:20;15.97;;;11.10;;
7983;SDS011;4037;47.980;10.172;2022-12-07T05:33:46;18.30;;;11.67;;
7983;SDS011;4037;47.980;10.172;2022-12-07T05:36:12;17.80;;;11.37;;
7983;SDS011;4037;47.980;10.172;2022-12-07T05:38:38;19.13;;;12.00;;
7983;SDS011;4037;47.980;10.172;2022-12-07T05:41:05;18.30;;;11.73;;
7983;SDS011;4037;47.980;10.172;2022-12-07T05:43:31;17.93;;;12.00;;
7983;SDS011;4037;47.980;10.172;2022-12-07T05:45:58;14.07;;;9.90;;
7983;SDS011;4037;47.980;10.172;2022-12-07T05:48:24;18.20;;;12.43;;
7983;SDS011;4037;47.980;10.172;2022-12-07T05:50:51;18.93;;;11.73;;
7983;SDS011;4037;47.980;10.172;2022-12-07T05:53:17;16.17;;;11.63;;
7983;SDS011;4037;47.980;10.172;2022-12-07T05:55:43;18.53;;;12.57;;
7983;SDS011;4037;47.980;10.172;2022-12-07T05:58:09;18.07;;;12.43;;
7983;SDS011;4037;47.980;10.172;2022-12-07T06:00:55;23.03;;;12.63;;
7983;SDS011;4037;47.980;10.172;2022-12-07T06:03:21;18.87;;;12.27;;
7983;SDS011;4037;47.980;10.172;2022-12-07T06:05:47;19.23;;;13.47;;
7983;SDS011;4037;47.980;10.172;2022-12-07T06:08:13;20.03;;;12.70;;
7983;SDS011;4037;47.980;10.172;2022-12-07T06:10:40;19.60;;;11.77;;
7983;SDS011;4037;47.980;10.172;2022-12-07T06:13:06;20.97;;;11.33;;
7983;SDS011;4037;47.980;10.172;2022-12-07T06:15:32;22.63;;;12.23;;
7983;SDS011;4037;47.980;10.172;2022-12-07T06:17:58;21.93;;;12.73;;
7983;SDS011;4037;47.980;10.172;2022-12-07T06:20:25;19.80;;;13.13;;
7983;SDS011;4037;47.980;10.172;2022-12-07T06:22:51;19.70;;;11.13;;
7983;SDS011;4037;47.980;10.172;2022-12-07T06:25:17;17.73;;;11.83;;
7983;SDS011;4037;47.980;10.172;2022-12-07T06:27:43;17.60;;;11.77;;
7983;SDS011;4037;47.980;10.172;2022-12-07T06:30:09;17.43;;;11.23;;
7983;SDS011;4037;47.980;10.172;2022-12-07T06:32:35;15.10;;;10.90;;
7983;SDS011;4037;47.980;10.172;2022-12-07T06:35:02;17.37;;;12.40;;
7983;SDS011;4037;47.980;10.172;2022-12-07T06:37:28;17.43;;;11.73;;
7983;SDS011;4037;47.980;10.172;2022-12-07T06:39:54;18.73;;;12.50;;
7983;SDS011;4037;47.980;10.172;2022-12-07T06:42:21;21.00;;;13.27;;
7983;SDS011;4037;47.980;10.172;2022-12-07T06:44:47;21.13;;;13.13;;
7983;SDS011;4037;47.980;10.172;2022-12-07T06:47:13;18.87;;;12.13;;
7983;SDS011;4037;47.980;10.172;2022-12-07T06:49:39;19.87;;;13.13;;
7983;SDS011;4037;47.980;10.172;2022-12-07T06:52:05;22.40;;;12.77;;
7983;SDS011;4037;47.980;10.172;2022-12-07T06:54:31;17.23;;;12.77;;
7983;SDS011;4037;47.980;10.172;2022-12-07T06:56:57;19.17;;;13.37;;
7983;SDS011;4037;47.980;10.172;2022-12-07T06:59:23;19.33;;;12.67;;
7983;SDS011;4037;47.980;10.172;2022-12-07T07:01:49;21.00;;;13.37;;
7983;SDS011;4037;47.980;10.172;2022-12-07T07:04:15;23.70;;;14.33;;
7983;SDS011;4037;47.980;10.172;2022-12-07T07:06:41;21.87;;;13.10;;
7983;SDS011;4037;47.980;10.172;2022-12-07T07:09:07;22.03;;;13.87;;
7983;SDS011;4037;47.980;10.172;2022-12-07T07:11:34;19.50;;;13.67;;
7983;SDS011;4037;47.980;10.172;2022-12-07T07:14:00;22.40;;;15.07;;
7983;SDS011;4037;47.980;10.172;2022-12-07T07:16:27;23.43;;;13.93;;
7983;SDS011;4037;47.980;10.172;2022-12-07T07:18:54;19.30;;;13.60;;
7983;SDS011;4037;47.980;10.172;2022-12-07T07:21:20;22.97;;;13.90;;
7983;SDS011;4037;47.980;10.172;2022-12-07T07:23:46;21.20;;;14.20;;
7983;SDS011;4037;47.980;10.172;2022-12-07T07:26:12;22.33;;;13.37;;
7983;SDS011;4037;47.980;10.172;2022-12-07T07:28:38;20.47;;;12.80;;
7983;SDS011;4037;47.980;10.172;2022-12-07T07:31:04;19.40;;;14.13;;
7983;SDS011;4037;47.980;10.172;2022-12-07T07:33:30;21.67;;;13.93;;
7983;SDS011;4037;47.980;10.172;2022-12-07T07:35:56;25.30;;;14.30;;
7983;SDS011;4037;47.980;10.172;2022-12-07T07:38:23;22.47;;;14.30;;
7983;SDS011;4037;47.980;10.172;2022-12-07T07:40:49;20.00;;;14.07;;
7983;SDS011;4037;47.980;10.172;2022-12-07T07:43:15;20.83;;;12.17;;
7983;SDS011;4037;47.980;10.172;2022-12-07T07:45:41;24.37;;;14.70;;
7983;SDS011;4037;47.980;10.172;2022-12-07T07:48:07;22.70;;;13.20;;
7983;SDS011;4037;47.980;10.172;2022-12-07T07:50:33;18.40;;;12.50;;
7983;SDS011;4037;47.980;10.172;2022-12-07T07:52:59;19.23;;;12.37;;
7983;SDS011;4037;47.980;10.172;2022-12-07T07:55:25;24.03;;;15.00;;
7983;SDS011;4037;47.980;10.172;2022-12-07T07:57:51;21.23;;;13.77;;
7983;SDS011;4037;47.980;10.172;2022-12-07T08:00:17;19.07;;;13.13;;
7983;SDS011;4037;47.980;10.172;2022-12-07T08:02:43;20.73;;;14.13;;
7983;SDS011;4037;47.980;10.172;2022-12-07T08:05:11;20.13;;;13.50;;
7983;SDS011;4037;47.980;10.172;2022-12-07T08:07:37;20.00;;;14.10;;
7983;SDS011;4037;47.980;10.172;2022-12-07T08:10:04;19.57;;;13.70;;
7983;SDS011;4037;47.980;10.172;2022-12-07T08:12:30;23.73;;;13.70;;
7983;SDS011;4037;47.980;10.172;2022-12-07T08:14:56;21.53;;;15.40;;
7983;SDS011;4037;47.980;10.172;2022-12-07T08:17:22;21.40;;;13.17;;
7983;SDS011;4037;47.980;10.172;2022-12-07T08:19:48;21.70;;;14.10;;
7983;SDS011;4037;47.980;10.172;2022-12-07T08:22:14;20.77;;;13.27;;
7983;SDS011;4037;47.980;10.172;2022-12-07T08:24:40;24.67;;;14.73;;
7983;SDS011;4037;47.980;10.172;2022-12-07T08:27:06;22.27;;;13.97;;
7983;SDS011;4037;47.980;10.172;2022-12-07T08:29:32;22.33;;;14.27;;
7983;SDS011;4037;47.980;10.172;2022-12-07T08:31:58;23.43;;;15.07;;
7983;SDS011;4037;47.980;10.172;2022-12-07T08:34:26;22.23;;;14.37;;
7983;SDS011;4037;47.980;10.172;2022-12-07T08:36:52;24.13;;;15.07;;
7983;SDS011;4037;47.980;10.172;2022-12-07T08:39:18;23.83;;;15.47;;
7983;SDS011;4037;47.980;10.172;2022-12-07T08:41:44;21.73;;;13.60;;
7983;SDS011;4037;47.980;10.172;2022-12-07T08:44:10;20.87;;;14.70;;
7983;SDS011;4037;47.980;10.172;2022-12-07T08:46:45;24.80;;;15.17;;
7983;SDS011;4037;47.980;10.172;2022-12-07T08:49:13;23.20;;;14.67;;
7983;SDS011;4037;47.980;10.172;2022-12-07T08:51:39;25.20;;;15.23;;
7983;SDS011;4037;47.980;10.172;2022-12-07T08:54:07;24.00;;;14.63;;
7983;SDS011;4037;47.980;10.172;2022-12-07T08:56:34;22.17;;;14.30;;
7983;SDS011;4037;47.980;10.172;2022-12-07T08:59:01;22.37;;;13.53;;
7983;SDS011;4037;47.980;10.172;2022-12-07T09:01:27;21.73;;;13.97;;
7983;SDS011;4037;47.980;10.172;2022-12-07T09:03:53;21.07;;;13.60;;
7983;SDS011;4037;47.980;10.172;2022-12-07T09:06:19;23.10;;;14.33;;
7983;SDS011;4037;47.980;10.172;2022-12-07T09:08:46;21.87;;;14.47;;
7983;SDS011;4037;47.980;10.172;2022-12-07T09:11:13;23.67;;;14.20;;
7983;SDS011;4037;47.980;10.172;2022-12-07T09:13:39;21.73;;;13.70;;
7983;SDS011;4037;47.980;10.172;2022-12-07T09:16:05;24.20;;;14.93;;
7983;SDS011;4037;47.980;10.172;2022-12-07T09:18:31;18.33;;;13.20;;
7983;SDS011;4037;47.980;10.172;2022-12-07T09:20:57;19.83;;;13.83;;
7983;SDS011;4037;47.980;10.172;2022-12-07T09:23:23;23.17;;;14.40;;
7983;SDS011;4037;47.980;10.172;2022-12-07T09:25:49;23.00;;;14.33;;
7983;SDS011;4037;47.980;10.172;2022-12-07T09:28:15;21.37;;;14.40;;
7983;SDS011;4037;47.980;10.172;2022-12-07T09:30:48;23.73;;;14.00;;
7983;SDS011;4037;47.980;10.172;2022-12-07T09:33:14;24.43;;;14.23;;
7983;SDS011;4037;47.980;10.172;2022-12-07T09:35:44;22.70;;;14.80;;
7983;SDS011;4037;47.980;10.172;2022-12-07T09:38:10;23.30;;;13.93;;
7983;SDS011;4037;47.980;10.172;2022-12-07T09:40:37;21.73;;;13.93;;
7983;SDS011;4037;47.980;10.172;2022-12-07T09:43:03;24.73;;;14.33;;
7983;SDS011;4037;47.980;10.172;2022-12-07T09:45:33;19.70;;;13.13;;
7983;SDS011;4037;47.980;10.172;2022-12-07T09:47:59;22.40;;;14.60;;
7983;SDS011;4037;47.980;10.172;2022-12-07T09:50:27;22.90;;;13.97;;
7983;SDS011;4037;47.980;10.172;2022-12-07T09:52:54;20.40;;;13.10;;
7983;SDS011;4037;47.980;10.172;2022-12-07T09:55:26;23.30;;;14.80;;
7983;SDS011;4037;47.980;10.172;2022-12-07T09:57:53;21.00;;;14.13;;
7983;SDS011;4037;47.980;10.172;2022-12-07T10:00:20;19.17;;;13.73;;
7983;SDS011;4037;47.980;10.172;2022-12-07T10:02:53;21.93;;;13.30;;
7983;SDS011;4037;47.980;10.172;2022-12-07T10:05:22;21.07;;;13.23;;
7983;SDS011;4037;47.980;10.172;2022-12-07T10:07:49;20.13;;;13.90;;
7983;SDS011;4037;47.980;10.172;2022-12-07T10:10:17;19.23;;;13.43;;
7983;SDS011;4037;47.980;10.172;2022-12-07T10:12:58;18.80;;;13.07;;
7983;SDS011;4037;47.980;10.172;2022-12-07T10:15:46;17.63;;;12.47;;
7983;SDS011;4037;47.980;10.172;2022-12-07T10:20:44;21.23;;;13.77;;
7983;SDS011;4037;47.980;10.172;2022-12-07T10:23:14;19.97;;;13.03;;
7983;SDS011;4037;47.980;10.172;2022-12-07T10:25:41;19.87;;;13.07;;
7983;SDS011;4037;47.980;10.172;2022-12-07T10:30:45;17.03;;;11.53;;
7983;SDS011;4037;47.980;10.172;2022-12-07T10:33:28;18.13;;;12.43;;
7983;SDS011;4037;47.980;10.172;2022-12-07T10:35:54;18.37;;;12.60;;
7983;SDS011;4037;47.980;10.172;2022-12-07T10:38:20;17.50;;;12.63;;
7983;SDS011;4037;47.980;10.172;2022-12-07T10:40:46;19.40;;;12.50;;
7983;SDS011;4037;47.980;10.172;2022-12-07T10:46:25;19.90;;;14.03;;
7983;SDS011;4037;47.980;10.172;2022-12-07T10:54:12;16.20;;;11.53;;
7983;SDS011;4037;47.980;10.172;2022-12-07T11:09:02;16.93;;;11.37;;
7983;SDS011;4037;47.980;10.172;2022-12-07T11:19:18;16.40;;;11.17;;
7983;SDS011;4037;47.980;10.172;2022-12-07T11:37:20;16.67;;;10.50;;
7983;SDS011;4037;47.980;10.172;2022-12-07T11:39:51;16.27;;;11.90;;
7983;SDS011;4037;47.980;10.172;2022-12-07T11:42:21;16.90;;;11.47;;
7983;SDS011;4037;47.980;10.172;2022-12-07T11:44:59;16.33;;;11.07;;
7983;SDS011;4037;47.980;10.172;2022-12-07T11:52:42;13.67;;;9.73;;
7983;SDS011;4037;47.980;10.172;2022-12-07T11:55:16;13.53;;;11.03;;
7983;SDS011;4037;47.980;10.172;2022-12-07T11:57:45;15.13;;;11.07;;
7983;SDS011;4037;47.980;10.172;2022-12-07T12:00:16;14.57;;;10.57;;
7983;SDS011;4037;47.980;10.172;2022-12-07T12:02:52;14.90;;;10.83;;
7983;SDS011;4037;47.980;10.172;2022-12-07T12:05:22;16.90;;;11.77;;
7983;SDS011;4037;47.980;10.172;2022-12-07T12:11:08;16.47;;;11.53;;
7983;SDS011;4037;47.980;10.172;2022-12-07T12:18:43;13.70;;;9.93;;
7983;SDS011;4037;47.980;10.172;2022-12-07T12:21:12;12.67;;;10.40;;
7983;SDS011;4037;47.980;10.172;2022-12-07T12:26:08;13.50;;;9.93;;
7983;SDS011;4037;47.980;10.172;2022-12-07T12:28:40;12.73;;;9.77;;
7983;SDS011;4037;47.980;10.172;2022-12-07T12:33:48;11.77;;;8.53;;
7983;SDS011;4037;47.980;10.172;2022-12-07T12:46:50;12.27;;;8.30;;
7983;SDS011;4037;47.980;10.172;2022-12-07T12:51:47;13.37;;;9.37;;
7983;SDS011;4037;47.980;10.172;2022-12-07T13:10:00;11.37;;;8.80;;
7983;SDS011;4037;47.980;10.172;2022-12-07T13:12:27;10.93;;;8.50;;
7983;SDS011;4037;47.980;10.172;2022-12-07T13:14:54;11.47;;;8.37;;
7983;SDS011;4037;47.980;10.172;2022-12-07T13:20:00;10.77;;;7.87;;
7983;SDS011;4037;47.980;10.172;2022-12-07T13:24:56;11.43;;;8.60;;
7983;SDS011;4037;47.980;10.172;2022-12-07T13:27:24;12.00;;;8.80;;
7983;SDS011;4037;47.980;10.172;2022-12-07T13:29:50;11.43;;;8.97;;
7983;SDS011;4037;47.980;10.172;2022-12-07T13:32:23;13.47;;;10.93;;
7983;SDS011;4037;47.980;10.172;2022-12-07T13:34:49;10.97;;;8.37;;
7983;SDS011;4037;47.980;10.172;2022-12-07T13:39:49;12.27;;;7.87;;
7983;SDS011;4037;47.980;10.172;2022-12-07T13:42:37;9.60;;;8.07;;
7983;SDS011;4037;47.980;10.172;2022-12-07T13:45:21;10.73;;;8.20;;
7983;SDS011;4037;47.980;10.172;2022-12-07T13:47:53;10.80;;;7.87;;
7983;SDS011;4037;47.980;10.172;2022-12-07T13:50:23;12.63;;;9.33;;
7983;SDS011;4037;47.980;10.172;2022-12-07T13:52:50;13.50;;;9.77;;
7983;SDS011;4037;47.980;10.172;2022-12-07T13:55:16;11.50;;;9.00;;
7983;SDS011;4037;47.980;10.172;2022-12-07T13:57:42;11.17;;;8.63;;
7983;SDS011;4037;47.980;10.172;2022-12-07T14:00:15;14.67;;;9.63;;
7983;SDS011;4037;47.980;10.172;2022-12-07T14:02:54;11.57;;;8.73;;
7983;SDS011;4037;47.980;10.172;2022-12-07T14:05:24;10.97;;;8.50;;
7983;SDS011;4037;47.980;10.172;2022-12-07T14:10:28;12.17;;;9.43;;
7983;SDS011;4037;47.980;10.172;2022-12-07T14:12:54;11.20;;;8.80;;
7983;SDS011;4037;47.980;10.172;2022-12-07T14:15:25;13.37;;;9.80;;
7983;SDS011;4037;47.980;10.172;2022-12-07T14:17:53;10.03;;;8.27;;
7983;SDS011;4037;47.980;10.172;2022-12-07T14:20:29;10.90;;;8.73;;
7983;SDS011;4037;47.980;10.172;2022-12-07T14:22:56;11.93;;;9.20;;
7983;SDS011;4037;47.980;10.172;2022-12-07T14:25:22;12.00;;;9.47;;
7983;SDS011;4037;47.980;10.172;2022-12-07T14:27:53;12.60;;;8.97;;
7983;SDS011;4037;47.980;10.172;2022-12-07T14:30:21;15.17;;;10.07;;
7983;SDS011;4037;47.980;10.172;2022-12-07T14:32:48;14.73;;;9.93;;
7983;SDS011;4037;47.980;10.172;2022-12-07T14:35:17;15.17;;;10.53;;
7983;SDS011;4037;47.980;10.172;2022-12-07T14:37:45;12.30;;;9.67;;
7983;SDS011;4037;47.980;10.172;2022-12-07T14:40:16;12.80;;;9.73;;
7983;SDS011;4037;47.980;10.172;2022-12-07T14:42:43;17.60;;;11.77;;
7983;SDS011;4037;47.980;10.172;2022-12-07T14:45:13;22.43;;;13.10;;
7983;SDS011;4037;47.980;10.172;2022-12-07T14:47:40;22.00;;;13.03;;
7983;SDS011;4037;47.980;10.172;2022-12-07T14:50:06;17.67;;;12.17;;
7983;SDS011;4037;47.980;10.172;2022-12-07T14:52:32;16.17;;;11.87;;
7983;SDS011;4037;47.980;10.172;2022-12-07T14:54:58;15.70;;;10.80;;
7983;SDS011;4037;47.980;10.172;2022-12-07T14:57:24;17.73;;;11.67;;
7983;SDS011;4037;47.980;10.172;2022-12-07T14:59:50;18.30;;;12.60;;
7983;SDS011;4037;47.980;10.172;2022-12-07T15:02:16;17.00;;;12.23;;
7983;SDS011;4037;47.980;10.172;2022-12-07T15:04:42;16.63;;;12.63;;
7983;SDS011;4037;47.980;10.172;2022-12-07T15:07:10;17.13;;;13.93;;
7983;SDS011;4037;47.980;10.172;2022-12-07T15:09:38;18.43;;;13.47;;
7983;SDS011;4037;47.980;10.172;2022-12-07T15:12:04;16.20;;;12.70;;
7983;SDS011;4037;47.980;10.172;2022-12-07T15:14:30;15.00;;;11.67;;
7983;SDS011;4037;47.980;10.172;2022-12-07T15:16:56;14.47;;;10.70;;
7983;SDS011;4037;47.980;10.172;2022-12-07T15:19:23;17.83;;;13.10;;
7983;SDS011;4037;47.980;10.172;2022-12-07T15:21:52;15.33;;;12.23;;
7983;SDS011;4037;47.980;10.172;2022-12-07T15:24:18;12.87;;;11.13;;
7983;SDS011;4037;47.980;10.172;2022-12-07T15:26:45;14.40;;;10.93;;
7983;SDS011;4037;47.980;10.172;2022-12-07T15:29:11;14.20;;;11.03;;
7983;SDS011;4037;47.980;10.172;2022-12-07T15:31:39;14.87;;;11.03;;
7983;SDS011;4037;47.980;10.172;2022-12-07T15:34:05;14.93;;;11.87;;
7983;SDS011;4037;47.980;10.172;2022-12-07T15:36:32;15.93;;;12.37;;
7983;SDS011;4037;47.980;10.172;2022-12-07T15:38:58;17.00;;;13.33;;
7983;SDS011;4037;47.980;10.172;2022-12-07T15:41:24;13.37;;;11.03;;
7983;SDS011;4037;47.980;10.172;2022-12-07T15:43:50;17.37;;;13.77;;
7983;SDS011;4037;47.980;10.172;2022-12-07T15:46:36;15.27;;;11.47;;
7983;SDS011;4037;47.980;10.172;2022-12-07T15:49:03;15.07;;;10.97;;
7983;SDS011;4037;47.980;10.172;2022-12-07T15:51:29;16.90;;;11.27;;
7983;SDS011;4037;47.980;10.172;2022-12-07T15:53:56;13.87;;;10.80;;
7983;SDS011;4037;47.980;10.172;2022-12-07T15:56:22;14.50;;;10.73;;
7983;SDS011;4037;47.980;10.172;2022-12-07T15:58:48;16.40;;;12.00;;
7983;SDS011;4037;47.980;10.172;2022-12-07T16:01:17;18.27;;;12.70;;
7983;SDS011;4037;47.980;10.172;2022-12-07T16:03:44;19.57;;;14.80;;
7983;SDS011;4037;47.980;10.172;2022-12-07T16:06:10;23.93;;;15.50;;
7983;SDS011;4037;47.980;10.172;2022-12-07T16:08:36;20.40;;;13.80;;
7983;SDS011;4037;47.980;10.172;2022-12-07T16:11:05;15.10;;;11.13;;
7983;SDS011;4037;47.980;10.172;2022-12-07T16:13:32;16.03;;;10.33;;
7983;SDS011;4037;47.980;10.172;2022-12-07T16:15:58;15.73;;;10.83;;
7983;SDS011;4037;47.980;10.172;2022-12-07T16:18:27;15.50;;;10.43;;
7983;SDS011;4037;47.980;10.172;2022-12-07T16:20:53;15.20;;;10.47;;
7983;SDS011;4037;47.980;10.172;2022-12-07T16:23:19;18.87;;;13.13;;
7983;SDS011;4037;47.980;10.172;2022-12-07T16:25:45;19.27;;;13.73;;
7983;SDS011;4037;47.980;10.172;2022-12-07T16:28:11;21.30;;;14.10;;
7983;SDS011;4037;47.980;10.172;2022-12-07T16:30:37;19.97;;;13.63;;
7983;SDS011;4037;47.980;10.172;2022-12-07T16:33:03;20.77;;;14.33;;
7983;SDS011;4037;47.980;10.172;2022-12-07T16:35:29;23.13;;;16.40;;
7983;SDS011;4037;47.980;10.172;2022-12-07T16:37:55;23.57;;;17.17;;
7983;SDS011;4037;47.980;10.172;2022-12-07T16:40:21;22.13;;;16.43;;
7983;SDS011;4037;47.980;10.172;2022-12-07T16:42:47;30.57;;;19.90;;
7983;SDS011;4037;47.980;10.172;2022-12-07T16:45:13;37.30;;;23.33;;
7983;SDS011;4037;47.980;10.172;2022-12-07T16:47:39;37.33;;;22.80;;
7983;SDS011;4037;47.980;10.172;2022-12-07T16:50:06;34.60;;;23.43;;
7983;SDS011;4037;47.980;10.172;2022-12-07T16:52:32;39.47;;;25.53;;
7983;SDS011;4037;47.980;10.172;2022-12-07T16:54:58;31.87;;;21.57;;
7983;SDS011;4037;47.980;10.172;2022-12-07T16:57:24;25.00;;;17.27;;
7983;SDS011;4037;47.980;10.172;2022-12-07T16:59:51;23.10;;;15.77;;
7983;SDS011;4037;47.980;10.172;2022-12-07T17:02:17;26.37;;;18.13;;